Delta Ios — SVAK9 — position and weather

sailwx.info

Track history (hours):
 
Tides and Currents Weather Stations Pressure Air Temp Water Temp Dewpoint Dewpoint Depression Visibility Wind Speed Wind Dir Waves Ship Positions

Delta Ios

Last reported at 2017-Apr-26 22:27 UTC. Time now 2017-Apr-30 18:45 UTC.
Position N 31°27' E 032°19'.

Length 276 m; draft 15.9 m.

Type: Tanker. MMSI: 240821000.

Date/timePositionNaut miles runAvg speedWind from/ knotsBaromVisibWave heightAir tempDewpointWater temp
2017-Apr-26 22:27N 31°27' E 032°19'0 0.0
2017-Apr-26 19:20N 31°27' E 032°19'0 0.0
2017-Apr-26 19:00N 31°27' E 032°19'0 0.0
2017-Apr-26 18:23N 31°27' E 032°19'0 0.0
2017-Apr-26 16:29N 31°27' E 032°19'0 0.4
2017-Apr-26 15:56N 31°27' E 032°19'3 3.5
2017-Apr-26 15:10N 31°29' E 032°16'3 8.6
2017-Apr-26 14:53N 31°31' E 032°14'410.4
2017-Apr-26 14:30N 31°33' E 032°11'1211.7
2017-Apr-26 13:30N 31°42' E 032°01'611.9
2017-Apr-26 13:00N 31°46' E 031°56'612.6
2017-Apr-26 12:30N 31°48' E 031°49'612.5
2017-Apr-26 12:00N 31°51' E 031°43'4 8.0
2017-Apr-26 11:30N 31°53' E 031°39'9313.1
2017-Apr-26 04:24N 32°24' E 029°55'  
2017-Apr-23 14:19N 36°12' E 014°44'1012.8
2017-Apr-23 13:30N 36°16' E 014°32'612.9
2017-Apr-23 13:00N 36°18' E 014°24'712.9
2017-Apr-23 12:30N 36°19' E 014°16'713.4
2017-Apr-23 12:00N 36°22' E 014°09'713.4
2017-Apr-23 11:30N 36°24' E 014°01'713.4
2017-Apr-23 11:00N 36°27' E 013°54'713.5
2017-Apr-23 10:30N 36°29' E 013°46'713.3
2017-Apr-23 10:00N 36°32' E 013°38'  
2017-Apr-19 20:38N 36°01' W 005°07'211.4
2017-Apr-19 20:29N 36°01' W 005°09'611.6
2017-Apr-19 20:00N 36°00' W 005°15'612.1
2017-Apr-19 19:30N 35°59' W 005°23'611.7
2017-Apr-19 19:00N 35°57' W 005°30'611.1
2017-Apr-19 18:30N 35°55' W 005°36'510.7
2017-Apr-19 18:00N 35°55' W 005°43'510.5
2017-Apr-19 17:30N 35°55' W 005°49'9010.2
2017-Apr-19 08:40N 36°10' W 007°39'211.4
2017-Apr-19 08:30N 36°10' W 007°41'1412.0
2017-Apr-19 07:22N 36°14' W 007°58'2412.3
2017-Apr-19 05:27N 36°19' W 008°26'1012.6
2017-Apr-19 04:39N 36°22' W 008°38'412.6
2017-Apr-19 04:18N 36°23' W 008°43'512.8
2017-Apr-19 03:55N 36°24' W 008°49'512.5
2017-Apr-19 03:30N 36°25' W 008°56'712.5
2017-Apr-19 02:56N 36°27' W 009°04'612.7
2017-Apr-19 02:29N 36°28' W 009°11'612.6
2017-Apr-19 02:00N 36°30' W 009°18'712.6
2017-Apr-19 01:28N 36°34' W 009°25'612.9
2017-Apr-19 00:59N 36°38' W 009°30'1812.4
2017-Apr-18 23:33N 36°54' W 009°40'3512.9
2017-Apr-18 20:49N 37°29' W 009°50'412.7
2017-Apr-18 20:30N 37°33' W 009°52'612.7
2017-Apr-18 20:00N 37°39' W 009°53'1312.5
2017-Apr-18 18:56N 37°52' W 009°57'512.2
2017-Apr-18 18:30N 37°57' W 009°58'612.0
2017-Apr-18 18:00N 38°03' W 010°00'612.1
2017-Apr-18 17:30N 38°09' W 010°02'612.0
2017-Apr-18 17:00N 38°14' W 010°04'611.9
2017-Apr-18 16:30N 38°20' W 010°06'612.1
2017-Apr-18 16:00N 38°26' W 010°08'611.9
2017-Apr-18 15:30N 38°32' W 010°11'3 6.6
2017-Apr-18 15:00N 38°35' W 010°11'2 3.3
2017-Apr-18 14:30N 38°36' W 010°10'1211.5
2017-Apr-18 13:30N 38°48' W 010°12'612.1
2017-Apr-18 13:00N 38°54' W 010°12'612.3
2017-Apr-18 12:30N 39°00' W 010°12'612.1
2017-Apr-18 12:00N 39°06' W 010°12'612.2
2017-Apr-18 11:30N 39°12' W 010°12'612.3
2017-Apr-18 11:00N 39°18' W 010°12'612.5
2017-Apr-18 10:30N 39°25' W 010°12'612.5
2017-Apr-18 10:00N 39°31' W 010°12'612.2
2017-Apr-18 09:30N 39°37' W 010°12'612.5
2017-Apr-18 09:00N 39°43' W 010°12'612.3
2017-Apr-18 08:30N 39°49' W 010°12'2612.2
2017-Apr-18 06:20N 40°16' W 010°12'8012.1
2017-Apr-17 23:40N 41°36' W 010°12'312.3
2017-Apr-17 23:26N 41°39' W 010°12'512.1
2017-Apr-17 22:59N 41°44' W 010°12'612.2
2017-Apr-17 22:30N 41°50' W 010°11'712.2
2017-Apr-17 21:58N 41°57' W 010°11'612.3
2017-Apr-17 21:30N 42°03' W 010°11'2012.2
2017-Apr-17 19:51N 42°23' W 010°11'412.2
2017-Apr-17 19:30N 42°27' W 010°11'612.4
2017-Apr-17 19:00N 42°33' W 010°11'812.1
2017-Apr-17 18:20N 42°41' W 010°12'3912.0
2017-Apr-17 15:05N 43°20' W 010°10'212.0
2017-Apr-17 14:57N 43°21' W 010°09'811.9
2017-Apr-17 14:18N 43°28' W 010°04'  
Track history (hours):
 
Tides and Currents Weather Stations Pressure Air Temp Water Temp Dewpoint Dewpoint Depression Visibility Wind Speed Wind Dir Waves Ship Positions

Delta Ios

Last reported at 2017-Apr-26 22:27 UTC. Time now 2017-Apr-30 18:45 UTC.
Position N 31°27' E 032°19'.

Length 276 m; draft 15.9 m.

Type: Tanker. MMSI: 240821000.

Date/timePositionNaut miles runAvg speedWind from/ knotsBaromVisibWave heightAir tempDewpointWater temp
2017-Apr-26 22:27N 31°27' E 032°19'0 0.0
2017-Apr-26 19:20N 31°27' E 032°19'0 0.0
2017-Apr-26 19:00N 31°27' E 032°19'0 0.0
2017-Apr-26 18:23N 31°27' E 032°19'0 0.0
2017-Apr-26 16:29N 31°27' E 032°19'0 0.4
2017-Apr-26 15:56N 31°27' E 032°19'3 3.5
2017-Apr-26 15:10N 31°29' E 032°16'3 8.6
2017-Apr-26 14:53N 31°31' E 032°14'410.4
2017-Apr-26 14:30N 31°33' E 032°11'1211.7
2017-Apr-26 13:30N 31°42' E 032°01'611.9
2017-Apr-26 13:00N 31°46' E 031°56'612.6
2017-Apr-26 12:30N 31°48' E 031°49'612.5
2017-Apr-26 12:00N 31°51' E 031°43'4 8.0
2017-Apr-26 11:30N 31°53' E 031°39'9313.1
2017-Apr-26 04:24N 32°24' E 029°55'  
2017-Apr-23 14:19N 36°12' E 014°44'1012.8
2017-Apr-23 13:30N 36°16' E 014°32'612.9
2017-Apr-23 13:00N 36°18' E 014°24'712.9
2017-Apr-23 12:30N 36°19' E 014°16'713.4
2017-Apr-23 12:00N 36°22' E 014°09'713.4
2017-Apr-23 11:30N 36°24' E 014°01'713.4
2017-Apr-23 11:00N 36°27' E 013°54'713.5
2017-Apr-23 10:30N 36°29' E 013°46'713.3
2017-Apr-23 10:00N 36°32' E 013°38'  
2017-Apr-19 20:38N 36°01' W 005°07'211.4
2017-Apr-19 20:29N 36°01' W 005°09'611.6
2017-Apr-19 20:00N 36°00' W 005°15'612.1
2017-Apr-19 19:30N 35°59' W 005°23'611.7
2017-Apr-19 19:00N 35°57' W 005°30'611.1
2017-Apr-19 18:30N 35°55' W 005°36'510.7
2017-Apr-19 18:00N 35°55' W 005°43'510.5
2017-Apr-19 17:30N 35°55' W 005°49'9010.2
2017-Apr-19 08:40N 36°10' W 007°39'211.4
2017-Apr-19 08:30N 36°10' W 007°41'1412.0
2017-Apr-19 07:22N 36°14' W 007°58'2412.3
2017-Apr-19 05:27N 36°19' W 008°26'1012.6
2017-Apr-19 04:39N 36°22' W 008°38'412.6
2017-Apr-19 04:18N 36°23' W 008°43'512.8
2017-Apr-19 03:55N 36°24' W 008°49'512.5
2017-Apr-19 03:30N 36°25' W 008°56'712.5
2017-Apr-19 02:56N 36°27' W 009°04'612.7
2017-Apr-19 02:29N 36°28' W 009°11'612.6
2017-Apr-19 02:00N 36°30' W 009°18'712.6
2017-Apr-19 01:28N 36°34' W 009°25'612.9
2017-Apr-19 00:59N 36°38' W 009°30'1812.4
2017-Apr-18 23:33N 36°54' W 009°40'3512.9
2017-Apr-18 20:49N 37°29' W 009°50'412.7
2017-Apr-18 20:30N 37°33' W 009°52'612.7
2017-Apr-18 20:00N 37°39' W 009°53'1312.5
2017-Apr-18 18:56N 37°52' W 009°57'512.2
2017-Apr-18 18:30N 37°57' W 009°58'612.0
2017-Apr-18 18:00N 38°03' W 010°00'612.1
2017-Apr-18 17:30N 38°09' W 010°02'612.0
2017-Apr-18 17:00N 38°14' W 010°04'611.9
2017-Apr-18 16:30N 38°20' W 010°06'612.1
2017-Apr-18 16:00N 38°26' W 010°08'611.9
2017-Apr-18 15:30N 38°32' W 010°11'3 6.6
2017-Apr-18 15:00N 38°35' W 010°11'2 3.3
2017-Apr-18 14:30N 38°36' W 010°10'1211.5
2017-Apr-18 13:30N 38°48' W 010°12'612.1
2017-Apr-18 13:00N 38°54' W 010°12'612.3
2017-Apr-18 12:30N 39°00' W 010°12'612.1
2017-Apr-18 12:00N 39°06' W 010°12'612.2
2017-Apr-18 11:30N 39°12' W 010°12'612.3
2017-Apr-18 11:00N 39°18' W 010°12'612.5
2017-Apr-18 10:30N 39°25' W 010°12'612.5
2017-Apr-18 10:00N 39°31' W 010°12'612.2
2017-Apr-18 09:30N 39°37' W 010°12'612.5
2017-Apr-18 09:00N 39°43' W 010°12'612.3
2017-Apr-18 08:30N 39°49' W 010°12'2612.2
2017-Apr-18 06:20N 40°16' W 010°12'8012.1
2017-Apr-17 23:40N 41°36' W 010°12'312.3
2017-Apr-17 23:26N 41°39' W 010°12'512.1
2017-Apr-17 22:59N 41°44' W 010°12'612.2
2017-Apr-17 22:30N 41°50' W 010°11'712.2
2017-Apr-17 21:58N 41°57' W 010°11'612.3
2017-Apr-17 21:30N 42°03' W 010°11'2012.2
2017-Apr-17 19:51N 42°23' W 010°11'412.2
2017-Apr-17 19:30N 42°27' W 010°11'612.4
2017-Apr-17 19:00N 42°33' W 010°11'812.1
2017-Apr-17 18:20N 42°41' W 010°12'3912.0
2017-Apr-17 15:05N 43°20' W 010°10'212.0
2017-Apr-17 14:57N 43°21' W 010°09'811.9
2017-Apr-17 14:18N 43°28' W 010°04'  

Dump ship's entire track history